createdAt,value
2018-02-20T00:00:16.531Z,0
2018-02-20T00:01:16.188Z,0
2018-02-20T00:02:16.157Z,0
2018-02-20T00:03:16.407Z,0
2018-02-20T00:04:16.374Z,0
2018-02-20T00:05:16.393Z,0
2018-02-20T00:06:16.367Z,0
2018-02-20T00:07:16.308Z,0
2018-02-20T00:08:16.333Z,0
2018-02-20T00:09:16.245Z,0
2018-02-20T00:10:15.960Z,0
2018-02-20T00:11:15.401Z,0
2018-02-20T00:12:15.906Z,0
2018-02-20T00:13:15.883Z,0
2018-02-20T00:14:15.855Z,0
2018-02-20T00:15:16.148Z,0
2018-02-20T00:16:16.080Z,0
2018-02-20T00:17:15.523Z,0
2018-02-20T00:18:15.759Z,0
2018-02-20T00:19:15.731Z,0
2018-02-20T00:20:15.440Z,0
2018-02-20T00:21:15.418Z,0
2018-02-20T00:22:15.936Z,0
2018-02-20T00:23:15.369Z,0
2018-02-20T00:24:15.868Z,0
2018-02-20T00:25:15.849Z,0
2018-02-20T00:26:15.828Z,0
2018-02-20T00:27:15.536Z,0
2018-02-20T00:28:15.500Z,0
2018-02-20T00:29:15.742Z,0
2018-02-20T00:30:15.457Z,0
2018-02-20T00:31:15.693Z,0
2018-02-20T00:32:15.674Z,0
2018-02-20T00:33:15.646Z,0
2018-02-20T00:34:15.351Z,0
2018-02-20T00:35:15.059Z,0
2018-02-20T00:36:15.843Z,0
2018-02-20T00:37:15.010Z,0
2018-02-20T00:38:15.521Z,0
2018-02-20T00:39:15.756Z,0
2018-02-20T00:40:15.204Z,0
2018-02-20T00:41:15.445Z,0
2018-02-20T00:42:15.155Z,0
2018-02-20T00:43:15.382Z,0
2018-02-20T00:44:15.367Z,0
2018-02-20T00:45:15.603Z,0
2018-02-20T00:46:15.309Z,0
2018-02-20T00:47:14.753Z,0
2018-02-20T00:48:14.729Z,0
2018-02-20T00:49:15.503Z,0
2018-02-20T00:50:15.261Z,0
2018-02-20T00:51:15.453Z,0
2018-02-20T00:52:15.170Z,0
2018-02-20T00:53:15.131Z,0
2018-02-20T00:54:14.582Z,0
2018-02-20T00:55:14.816Z,0
2018-02-20T00:56:15.063Z,0
2018-02-20T00:57:14.780Z,0
2018-02-20T00:58:14.743Z,0
2018-02-20T00:59:14.183Z,0
2018-02-20T01:00:14.963Z,0
2018-02-20T01:01:14.985Z,0
2018-02-20T01:02:14.902Z,0
2018-02-20T01:03:15.149Z,0
2018-02-20T01:04:15.124Z,0
2018-02-20T01:05:14.837Z,0
2018-02-20T01:06:15.067Z,0
2018-02-20T01:07:14.518Z,0
2018-02-20T01:08:14.532Z,0
2018-02-20T01:09:14.997Z,0
2018-02-20T01:10:14.448Z,0
2018-02-20T01:11:14.942Z,0
2018-02-20T01:12:14.123Z,0
2018-02-20T01:13:14.617Z,0
2018-02-20T01:14:14.335Z,0
2018-02-20T01:15:14.581Z,0
2018-02-20T01:16:14.290Z,0
2018-02-20T01:17:14.258Z,0
2018-02-20T01:18:14.503Z,0
2018-02-20T01:19:14.740Z,0
2018-02-20T01:20:13.916Z,0
2018-02-20T01:21:14.686Z,0
2018-02-20T01:22:13.600Z,0
2018-02-20T01:23:14.103Z,0
2018-02-20T01:24:14.610Z,0
2018-02-20T01:25:14.315Z,0
2018-02-20T01:26:14.690Z,0
2018-02-20T01:27:14.263Z,0
2018-02-20T01:28:14.510Z,0
2018-02-20T01:29:13.691Z,0
2018-02-20T01:30:14.191Z,0
2018-02-20T01:31:14.169Z,0
2018-02-20T01:32:14.146Z,0
2018-02-20T01:33:13.862Z,0
2018-02-20T01:34:13.822Z,0
2018-02-20T01:35:14.065Z,0
2018-02-20T01:36:14.076Z,0
2018-02-20T01:37:13.740Z,0
2018-02-20T01:38:13.725Z,0
2018-02-20T01:39:13.695Z,0
2018-02-20T01:40:13.672Z,0
2018-02-20T01:41:13.645Z,0
2018-02-20T01:42:13.346Z,0
2018-02-20T01:43:13.596Z,0
2018-02-20T01:44:13.568Z,0
2018-02-20T01:45:13.802Z,0
2018-02-20T01:46:12.979Z,0
2018-02-20T01:47:13.505Z,0
2018-02-20T01:48:13.202Z,0
2018-02-20T01:49:13.699Z,0
2018-02-20T01:50:13.410Z,0
2018-02-20T01:51:13.382Z,0
2018-02-20T01:52:13.363Z,0
2018-02-20T01:53:13.606Z,0
2018-02-20T01:54:13.317Z,0
2018-02-20T01:55:13.569Z,0
2018-02-20T01:56:13.261Z,0
2018-02-20T01:57:13.501Z,0
2018-02-20T01:58:13.556Z,0
2018-02-20T01:59:13.713Z,0
2018-02-20T02:00:13.424Z,0
2018-02-20T02:01:13.395Z,0
2018-02-20T02:02:13.369Z,0
2018-02-20T02:03:13.340Z,0
2018-02-20T02:04:13.597Z,0
2018-02-20T02:05:13.394Z,0
2018-02-20T02:06:12.743Z,0
2018-02-20T02:07:12.484Z,0
2018-02-20T02:08:13.216Z,0
2018-02-20T02:09:13.203Z,0
2018-02-20T02:10:13.446Z,0
2018-02-20T02:11:12.895Z,0
2018-02-20T02:12:13.117Z,0
2018-02-20T02:13:13.088Z,0
2018-02-20T02:14:12.806Z,0
2018-02-20T02:15:12.835Z,0
2018-02-20T02:16:13.023Z,0
2018-02-20T02:17:13.050Z,0
2018-02-20T02:18:13.229Z,0
2018-02-20T02:19:12.676Z,0
2018-02-20T02:20:12.386Z,0
2018-02-20T02:21:12.355Z,0
2018-02-20T02:22:12.916Z,0
2018-02-20T02:23:12.571Z,0
2018-02-20T02:24:12.814Z,0
2018-02-20T02:25:12.787Z,0
2018-02-20T02:26:12.508Z,0
2018-02-20T02:27:12.252Z,0
2018-02-20T02:28:12.449Z,0
2018-02-20T02:29:12.154Z,0
2018-02-20T02:30:12.931Z,0
2018-02-20T02:31:12.902Z,0
2018-02-20T02:32:12.621Z,0
2018-02-20T02:33:12.862Z,0
2018-02-20T02:34:12.029Z,0
2018-02-20T02:35:12.804Z,0
2018-02-20T02:36:11.987Z,0
2018-02-20T02:37:12.807Z,0
2018-02-20T02:38:12.459Z,0
2018-02-20T02:39:12.167Z,0
2018-02-20T02:40:12.674Z,0
2018-02-20T02:41:12.647Z,0
2018-02-20T02:42:12.088Z,0
2018-02-20T02:43:12.335Z,0
2018-02-20T02:44:12.568Z,0
2018-02-20T02:45:12.024Z,0
2018-02-20T02:46:11.727Z,0
2018-02-20T02:47:12.506Z,0
2018-02-20T02:48:11.941Z,0
2018-02-20T02:49:12.176Z,0
2018-02-20T02:50:12.427Z,0
2018-02-20T02:51:12.406Z,0
2018-02-20T02:52:11.829Z,0
2018-02-20T02:53:12.078Z,0
2018-02-20T02:54:12.050Z,0
2018-02-20T02:55:12.026Z,0
2018-02-20T02:56:11.459Z,0
2018-02-20T02:57:12.242Z,0
2018-02-20T02:58:11.992Z,0
2018-02-20T02:59:11.928Z,0
2018-02-20T03:00:11.893Z,0
2018-02-20T03:01:11.872Z,0
2018-02-20T03:02:11.568Z,0
2018-02-20T03:03:11.552Z,0
2018-02-20T03:04:11.537Z,0
2018-02-20T03:05:11.776Z,0
2018-02-20T03:06:11.746Z,0
2018-02-20T03:07:11.205Z,0
2018-02-20T03:08:11.684Z,0
2018-02-20T03:09:11.389Z,0
2018-02-20T03:10:11.365Z,0
2018-02-20T03:11:11.071Z,0
2018-02-20T03:12:11.576Z,0
2018-02-20T03:13:11.809Z,0
2018-02-20T03:14:11.256Z,0
2018-02-20T03:15:11.235Z,0
2018-02-20T03:16:11.469Z,0
2018-02-20T03:17:11.186Z,0
2018-02-20T03:18:11.467Z,0
2018-02-20T03:19:11.130Z,0
2018-02-20T03:20:11.644Z,0
2018-02-20T03:21:11.602Z,0
2018-02-20T03:22:11.320Z,0
2018-02-20T03:23:11.589Z,0
2018-02-20T03:24:10.731Z,0
2018-02-20T03:25:11.247Z,0
2018-02-20T03:26:11.432Z,0
2018-02-20T03:27:10.663Z,0
2018-02-20T03:28:11.178Z,0
2018-02-20T03:29:10.873Z,0
2018-02-20T03:30:11.395Z,0
2018-02-20T03:31:11.099Z,0
2018-02-20T03:32:11.318Z,0
2018-02-20T03:33:10.772Z,0
2018-02-20T03:34:10.749Z,0
2018-02-20T03:35:10.713Z,0
2018-02-20T03:36:10.954Z,0
2018-02-20T03:37:10.414Z,0
2018-02-20T03:38:10.907Z,0
2018-02-20T03:39:10.617Z,0
2018-02-20T03:40:10.628Z,0
2018-02-20T03:41:10.827Z,0
2018-02-20T03:42:11.067Z,0
2018-02-20T03:43:10.506Z,0
2018-02-20T03:44:11.020Z,0
2018-02-20T03:45:10.246Z,0
2018-02-20T03:46:10.445Z,0
2018-02-20T03:47:10.670Z,0
2018-02-20T03:48:10.375Z,0
2018-02-20T03:49:10.886Z,0
2018-02-20T03:50:10.860Z,0
2018-02-20T03:51:10.776Z,0
2018-02-20T03:52:10.278Z,0
2018-02-20T03:53:09.988Z,0
2018-02-20T03:54:10.221Z,0
2018-02-20T03:55:10.473Z,0
2018-02-20T03:56:10.494Z,0
2018-02-20T03:57:09.878Z,0
2018-02-20T03:58:10.390Z,0
2018-02-20T03:59:10.144Z,0
2018-02-20T04:00:09.810Z,0
2018-02-20T04:01:09.570Z,0
2018-02-20T04:02:10.286Z,0
2018-02-20T04:03:09.793Z,0
2018-02-20T04:04:10.255Z,0
2018-02-20T04:05:09.949Z,0
2018-02-20T04:06:09.652Z,0
2018-02-20T04:07:09.901Z,0
2018-02-20T04:08:10.125Z,0
2018-02-20T04:09:10.415Z,0
2018-02-20T04:10:09.549Z,0
2018-02-20T04:11:09.778Z,0
2018-02-20T04:12:10.282Z,0
2018-02-20T04:13:10.006Z,0
2018-02-20T04:14:09.443Z,0
2018-02-20T04:15:09.936Z,0
2018-02-20T04:16:09.648Z,0
2018-02-20T04:17:09.358Z,0
2018-02-20T04:18:10.128Z,0
2018-02-20T04:19:10.108Z,0
2018-02-20T04:20:09.548Z,0
2018-02-20T04:21:09.790Z,0
2018-02-20T04:22:09.780Z,0
2018-02-20T04:23:10.014Z,0
2018-02-20T04:24:09.715Z,0
2018-02-20T04:25:09.695Z,0
2018-02-20T04:26:09.388Z,0
2018-02-20T04:27:09.888Z,0
2018-02-20T04:28:09.598Z,0
2018-02-20T04:29:09.361Z,0
2018-02-20T04:30:09.288Z,0
2018-02-20T04:31:09.255Z,0
2018-02-20T04:32:08.967Z,0
2018-02-20T04:33:09.491Z,0
2018-02-20T04:34:09.537Z,0
2018-02-20T04:35:09.694Z,0
2018-02-20T04:36:09.657Z,0
2018-02-20T04:37:09.641Z,0
2018-02-20T04:38:09.339Z,0
2018-02-20T04:39:09.370Z,0
2018-02-20T04:40:09.553Z,0
2018-02-20T04:41:08.749Z,0
2018-02-20T04:42:09.237Z,0
2018-02-20T04:43:08.953Z,0
2018-02-20T04:44:08.655Z,0
2018-02-20T04:45:09.206Z,0
2018-02-20T04:46:08.867Z,0
2018-02-20T04:47:09.373Z,0
2018-02-20T04:48:08.824Z,0
2018-02-20T04:49:09.057Z,0
2018-02-20T04:50:08.821Z,0
2018-02-20T04:51:08.771Z,0
2018-02-20T04:52:08.988Z,0
2018-02-20T04:53:08.708Z,0
2018-02-20T04:54:08.930Z,0
2018-02-20T04:55:08.902Z,0
2018-02-20T04:56:08.642Z,0
2018-02-20T04:57:08.905Z,0
2018-02-20T04:58:08.553Z,0
2018-02-20T04:59:08.822Z,0
2018-02-20T05:00:08.767Z,0
2018-02-20T05:01:08.755Z,0
2018-02-20T05:02:08.446Z,0
2018-02-20T05:03:08.951Z,0
2018-02-20T05:04:08.668Z,0
2018-02-20T05:05:08.414Z,0
2018-02-20T05:06:08.076Z,0
2018-02-20T05:07:08.312Z,0
2018-02-20T05:08:08.282Z,0
2018-02-20T05:09:08.260Z,0
2018-02-20T05:10:08.770Z,0
2018-02-20T05:11:08.463Z,0
2018-02-20T05:12:07.650Z,0
2018-02-20T05:13:07.895Z,0
2018-02-20T05:14:07.600Z,0
2018-02-20T05:15:08.370Z,0
2018-02-20T05:16:08.068Z,0
2018-02-20T05:17:08.579Z,0
2018-02-20T05:18:08.284Z,0
2018-02-20T05:19:08.262Z,0
2018-02-20T05:20:07.963Z,0
2018-02-20T05:21:08.225Z,0
2018-02-20T05:22:07.704Z,0
2018-02-20T05:23:07.899Z,0
2018-02-20T05:24:08.129Z,0
2018-02-20T05:25:08.108Z,0
2018-02-20T05:26:07.544Z,0
2018-02-20T05:27:08.537Z,0
2018-02-20T05:28:07.759Z,0
2018-02-20T05:29:07.464Z,0
2018-02-20T05:30:07.699Z,0
2018-02-20T05:31:07.942Z,0
2018-02-20T05:32:07.650Z,0
2018-02-20T05:33:07.637Z,0
2018-02-20T05:34:07.069Z,0
2018-02-20T05:35:08.105Z,0
2018-02-20T05:36:07.810Z,0
2018-02-20T05:37:07.523Z,0
2018-02-20T05:38:08.033Z,0
2018-02-20T05:39:07.198Z,0
2018-02-20T05:40:07.443Z,0
2018-02-20T05:41:07.942Z,0
2018-02-20T05:42:07.386Z,0
2018-02-20T05:43:07.643Z,0
2018-02-20T05:44:07.335Z,0
2018-02-20T05:45:07.588Z,0
2018-02-20T05:46:07.297Z,0
2018-02-20T05:47:07.576Z,0
2018-02-20T05:48:07.488Z,0
2018-02-20T05:49:07.742Z,0
2018-02-20T05:50:07.185Z,0
2018-02-20T05:51:07.417Z,0
2018-02-20T05:52:07.399Z,0
2018-02-20T05:53:07.364Z,0
2018-02-20T05:54:06.809Z,0
2018-02-20T05:55:07.045Z,0
2018-02-20T05:56:07.555Z,0
2018-02-20T05:57:06.724Z,0
2018-02-20T05:58:07.536Z,0
2018-02-20T05:59:07.205Z,0
2018-02-20T06:00:06.918Z,0
2018-02-20T06:01:06.885Z,0
2018-02-20T06:02:06.850Z,0
2018-02-20T06:03:06.564Z,0
2018-02-20T06:04:07.068Z,0
2018-02-20T06:05:07.315Z,0
2018-02-20T06:06:07.018Z,0
2018-02-20T06:07:07.258Z,0
2018-02-20T06:08:06.696Z,0
2018-02-20T06:09:06.936Z,0
2018-02-20T06:10:06.114Z,0
2018-02-20T06:11:06.632Z,0
2018-02-20T06:12:06.323Z,0
2018-02-20T06:13:06.574Z,0
2018-02-20T06:14:06.541Z,0
2018-02-20T06:15:06.516Z,0
2018-02-20T06:16:07.028Z,0
2018-02-20T06:17:06.751Z,0
2018-02-20T06:18:06.695Z,0
2018-02-20T06:19:06.672Z,0
2018-02-20T06:20:06.104Z,0
2018-02-20T06:21:06.621Z,0
2018-02-20T06:22:06.602Z,0
2018-02-20T06:23:06.363Z,0
2018-02-20T06:24:06.543Z,0
2018-02-20T06:25:06.015Z,0
2018-02-20T06:26:05.960Z,0
2018-02-20T06:27:06.194Z,0
2018-02-20T06:28:06.173Z,0
2018-02-20T06:29:06.140Z,0
2018-02-20T06:30:06.114Z,0
2018-02-20T06:31:05.820Z,0
2018-02-20T06:32:06.653Z,0
2018-02-20T06:33:06.303Z,0
2018-02-20T06:34:06.281Z,5
2018-02-20T06:35:05.983Z,5
2018-02-20T06:36:06.505Z,5
2018-02-20T06:37:05.921Z,5
2018-02-20T06:38:05.912Z,5
2018-02-20T06:39:05.608Z,5
2018-02-20T06:40:06.373Z,5
2018-02-20T06:41:05.579Z,5
2018-02-20T06:42:06.079Z,5
2018-02-20T06:43:06.046Z,10
2018-02-20T06:44:05.755Z,10
2018-02-20T06:45:05.716Z,10
2018-02-20T06:46:06.232Z,10
2018-02-20T06:47:05.657Z,10
2018-02-20T06:48:05.630Z,10
2018-02-20T06:49:05.880Z,10
2018-02-20T06:50:05.853Z,15
2018-02-20T06:51:06.159Z,15
2018-02-20T06:52:05.546Z,15
2018-02-20T06:53:05.773Z,15
2018-02-20T06:54:05.208Z,15
2018-02-20T06:55:05.449Z,15
2018-02-20T06:56:05.677Z,20
2018-02-20T06:57:05.414Z,20
2018-02-20T06:58:05.643Z,20
2018-02-20T06:59:05.874Z,20
2018-02-20T07:00:05.313Z,20
2018-02-20T07:01:05.292Z,25
2018-02-20T07:02:05.272Z,25
2018-02-20T07:03:05.769Z,25
2018-02-20T07:04:05.477Z,25
2018-02-20T07:05:05.719Z,25
2018-02-20T07:06:05.163Z,30
2018-02-20T07:07:05.385Z,30
2018-02-20T07:08:05.097Z,30
2018-02-20T07:09:04.810Z,30
2018-02-20T07:10:05.041Z,30
2018-02-20T07:11:05.281Z,35
2018-02-20T07:12:05.276Z,35
2018-02-20T07:13:05.232Z,35
2018-02-20T07:14:05.202Z,35
2018-02-20T07:15:04.652Z,35
2018-02-20T07:16:04.883Z,40
2018-02-20T07:17:04.857Z,40
2018-02-20T07:18:04.572Z,40
2018-02-20T07:19:05.075Z,40
2018-02-20T07:20:05.048Z,40
2018-02-20T07:21:05.032Z,45
2018-02-20T07:22:05.268Z,45
2018-02-20T07:23:04.714Z,45
2018-02-20T07:24:04.150Z,45
2018-02-20T07:25:04.929Z,50
2018-02-20T07:26:04.636Z,50
2018-02-20T07:27:04.802Z,50
2018-02-20T07:28:04.311Z,50
2018-02-20T07:29:04.546Z,50
2018-02-20T07:30:05.060Z,55
2018-02-20T07:31:04.758Z,55
2018-02-20T07:32:04.732Z,55
2018-02-20T07:33:04.441Z,55
2018-02-20T07:34:04.150Z,55
2018-02-20T07:35:04.391Z,60
2018-02-20T07:36:04.361Z,60
2018-02-20T07:37:04.861Z,60
2018-02-20T07:38:04.312Z,60
2018-02-20T07:39:04.284Z,60
2018-02-20T07:40:04.271Z,60
2018-02-20T07:41:04.226Z,65
2018-02-20T07:42:04.205Z,65
2018-02-20T07:43:04.171Z,65
2018-02-20T07:44:04.470Z,65
2018-02-20T07:45:04.390Z,70
2018-02-20T07:46:04.100Z,70
2018-02-20T07:47:03.815Z,70
2018-02-20T07:48:04.306Z,70
2018-02-20T07:49:04.298Z,70
2018-02-20T07:50:04.272Z,75
2018-02-20T07:51:04.235Z,75
2018-02-20T07:52:03.949Z,75
2018-02-20T07:53:04.450Z,75
2018-02-20T07:54:04.170Z,75
2018-02-20T07:55:04.133Z,80
2018-02-20T07:56:03.839Z,80
2018-02-20T07:57:03.819Z,80
2018-02-20T07:58:03.789Z,80
2018-02-20T07:59:04.033Z,80
2018-02-20T08:00:04.007Z,85
2018-02-20T08:01:04.246Z,85
2018-02-20T08:02:03.685Z,85
2018-02-20T08:03:03.925Z,85
2018-02-20T08:04:03.369Z,85
2018-02-20T08:05:03.610Z,90
2018-02-20T08:06:03.852Z,90
2018-02-20T08:07:03.296Z,90
2018-02-20T08:08:03.805Z,90
2018-02-20T08:09:03.244Z,95
2018-02-20T08:10:03.220Z,95
2018-02-20T08:11:03.203Z,95
2018-02-20T08:12:03.438Z,100
2018-02-20T08:13:03.675Z,100
2018-02-20T08:14:03.928Z,95
2018-02-20T08:15:03.639Z,100
2018-02-20T08:16:03.875Z,100
2018-02-20T08:17:03.842Z,100
2018-02-20T08:18:03.833Z,105
2018-02-20T08:19:02.990Z,105
2018-02-20T08:20:03.499Z,105
2018-02-20T08:21:02.941Z,110
2018-02-20T08:22:03.461Z,110
2018-02-20T08:23:02.887Z,110
2018-02-20T08:24:03.396Z,115
2018-02-20T08:25:02.847Z,115
2018-02-20T08:26:02.810Z,115
2018-02-20T08:27:03.064Z,120
2018-02-20T08:28:03.042Z,120
2018-02-20T08:29:03.010Z,120
2018-02-20T08:30:03.251Z,130
2018-02-20T08:31:02.696Z,200
2018-02-20T08:32:03.196Z,215
2018-02-20T08:33:02.379Z,160
2018-02-20T08:34:02.892Z,135
2018-02-20T08:35:03.142Z,135
2018-02-20T08:36:03.104Z,135
2018-02-20T08:37:03.079Z,165
2018-02-20T08:38:02.788Z,230
2018-02-20T08:39:03.304Z,205
2018-02-20T08:40:02.485Z,225
2018-02-20T08:41:02.994Z,320
2018-02-20T08:42:02.433Z,360
2018-02-20T08:43:02.425Z,365
2018-02-20T08:44:02.391Z,370
2018-02-20T08:45:02.364Z,360
2018-02-20T08:46:02.928Z,270
2018-02-20T08:47:02.591Z,180
2018-02-20T08:48:03.100Z,220
2018-02-20T08:49:02.807Z,330
2018-02-20T08:50:02.790Z,365
2018-02-20T08:51:03.025Z,330
2018-02-20T08:52:02.749Z,350
2018-02-20T08:53:02.986Z,400
2018-02-20T08:54:02.972Z,400
2018-02-20T08:55:02.423Z,395
2018-02-20T08:56:02.660Z,405
2018-02-20T08:57:02.643Z,445
2018-02-20T08:58:02.358Z,470
2018-02-20T08:59:02.338Z,400
2018-02-20T09:00:02.058Z,400
2018-02-20T09:01:02.830Z,470
2018-02-20T09:02:02.549Z,430
2018-02-20T09:03:02.000Z,420
2018-02-20T09:04:02.773Z,410
2018-02-20T09:05:02.500Z,390
2018-02-20T09:06:02.218Z,425
2018-02-20T09:07:01.927Z,415
2018-02-20T09:08:02.443Z,430
2018-02-20T09:09:02.443Z,470
2018-02-20T09:10:02.421Z,485
2018-02-20T09:11:02.140Z,475
2018-02-20T09:12:02.373Z,390
2018-02-20T09:13:02.357Z,305
2018-02-20T09:14:02.618Z,255
2018-02-20T09:15:02.060Z,285
2018-02-20T09:16:01.778Z,300
2018-02-20T09:17:01.764Z,405
2018-02-20T09:18:02.011Z,465
2018-02-20T09:19:02.260Z,400
2018-02-20T09:20:02.241Z,345
2018-02-20T09:21:02.222Z,440
2018-02-20T09:22:01.947Z,455
2018-02-20T09:23:02.465Z,465
2018-02-20T09:24:01.911Z,455
2018-02-20T09:25:02.153Z,455
2018-02-20T09:26:02.214Z,425
2018-02-20T09:27:02.348Z,375
2018-02-20T09:28:02.381Z,340
2018-02-20T09:29:01.571Z,280
2018-02-20T09:30:01.817Z,235
2018-02-20T09:31:01.838Z,205
2018-02-20T09:32:02.316Z,215
2018-02-20T09:33:02.032Z,260
2018-02-20T09:34:02.272Z,290
2018-02-20T09:35:02.004Z,325
2018-02-20T09:36:01.977Z,455
2018-02-20T09:37:01.968Z,415
2018-02-20T09:38:01.749Z,345
2018-02-20T09:39:01.987Z,305
2018-02-20T09:40:01.914Z,330
2018-02-20T09:41:01.640Z,280
2018-02-20T09:42:01.612Z,210
2018-02-20T09:43:01.858Z,205
2018-02-20T09:44:01.844Z,250
2018-02-20T09:45:01.838Z,335
2018-02-20T09:46:01.285Z,360
2018-02-20T09:47:01.532Z,405
2018-02-20T09:48:01.783Z,305
2018-02-20T09:49:01.233Z,215
2018-02-20T09:50:01.746Z,225
2018-02-20T09:51:01.190Z,240
2018-02-20T09:52:01.711Z,405
2018-02-20T09:53:01.971Z,575
2018-02-20T09:54:01.999Z,650
2018-02-20T09:55:01.393Z,670
2018-02-20T09:56:01.130Z,680
2018-02-20T09:57:01.630Z,680
2018-02-20T09:58:01.625Z,735
2018-02-20T09:59:01.880Z,700
2018-02-20T10:00:01.061Z,590
2018-02-20T10:01:01.574Z,380
2018-02-20T10:02:01.023Z,280
2018-02-20T10:03:01.539Z,260
2018-02-20T10:04:00.983Z,255
2018-02-20T10:05:01.234Z,265
2018-02-20T10:06:01.230Z,260
2018-02-20T10:07:01.730Z,345
2018-02-20T10:08:01.550Z,325
2018-02-20T10:09:01.713Z,240
2018-02-20T10:10:00.631Z,290
2018-02-20T10:11:01.150Z,335
2018-02-20T10:12:01.651Z,395
2018-02-20T10:13:01.113Z,440
2018-02-20T10:14:01.625Z,435
2018-02-20T10:15:01.344Z,485
2018-02-20T10:16:01.120Z,485
2018-02-20T10:17:01.340Z,485
2018-02-20T10:18:01.294Z,520
2018-02-20T10:19:01.322Z,615
2018-02-20T10:20:01.342Z,700
2018-02-20T10:21:01.379Z,680
2018-02-20T10:22:00.701Z,650
2018-02-20T10:23:01.224Z,575
2018-02-20T10:24:00.950Z,525
2018-02-20T10:25:00.696Z,585
2018-02-20T10:26:00.925Z,625
2018-02-20T10:27:00.977Z,630
2018-02-20T10:28:01.158Z,550
2018-02-20T10:29:01.450Z,380
2018-02-20T10:30:01.136Z,365
2018-02-20T10:31:01.150Z,515
2018-02-20T10:32:01.033Z,520
2018-02-20T10:33:00.817Z,575
2018-02-20T10:34:00.799Z,645
2018-02-20T10:35:00.795Z,585
2018-02-20T10:36:00.770Z,520
2018-02-20T10:37:00.500Z,470
2018-02-20T10:38:01.021Z,435
2018-02-20T10:39:01.034Z,385
2018-02-20T10:40:00.454Z,385
2018-02-20T10:41:00.968Z,385
2018-02-20T10:42:01.003Z,425
2018-02-20T10:43:00.716Z,430
2018-02-20T10:44:00.664Z,480
2018-02-20T10:45:00.661Z,520
2018-02-20T10:46:00.655Z,480
2018-02-20T10:47:00.624Z,510
2018-02-20T10:48:00.880Z,615
2018-02-20T10:49:00.883Z,655
2018-02-20T10:50:00.920Z,580
2018-02-20T10:51:00.577Z,625
2018-02-20T10:52:00.826Z,760
2018-02-20T10:53:00.881Z,515
2018-02-20T10:54:00.810Z,315
2018-02-20T10:55:00.518Z,420
2018-02-20T10:56:01.066Z,430
2018-02-20T10:57:00.243Z,470
2018-02-20T10:58:01.010Z,555
2018-02-20T10:59:01.027Z,510
2018-02-20T11:00:00.454Z,610
2018-02-20T11:01:00.715Z,700
2018-02-20T11:02:00.164Z,650
2018-02-20T11:03:00.682Z,570
2018-02-20T11:04:00.508Z,565
2018-02-20T11:05:00.128Z,515
2018-02-20T11:06:00.383Z,535
2018-02-20T11:07:00.422Z,615
2018-02-20T11:08:00.630Z,665
2018-02-20T11:09:00.650Z,645
2018-02-20T11:10:00.806Z,570
2018-02-20T11:11:00.317Z,565
2018-02-20T11:12:00.308Z,680
2018-02-20T11:12:59.771Z,630
2018-02-20T11:14:00.543Z,425
2018-02-20T11:15:00.550Z,395
2018-02-20T11:16:00.257Z,550
2018-02-20T11:17:01.134Z,595
2018-02-20T11:17:59.965Z,570
2018-02-20T11:19:00.504Z,485
2018-02-20T11:20:00.211Z,485
2018-02-20T11:21:00.478Z,590
2018-02-20T11:22:00.192Z,615
2018-02-20T11:23:00.448Z,645
2018-02-20T11:23:59.904Z,585
2018-02-20T11:24:59.629Z,510
2018-02-20T11:26:00.419Z,520
2018-02-20T11:27:00.342Z,525
2018-02-20T11:28:00.389Z,545
2018-02-20T11:29:00.114Z,580
2018-02-20T11:30:00.651Z,530
2018-02-20T11:31:00.462Z,450
2018-02-20T11:32:00.355Z,460
2018-02-20T11:33:00.334Z,465
2018-02-20T11:34:00.070Z,540
2018-02-20T11:35:00.592Z,585
2018-02-20T11:36:00.305Z,515
2018-02-20T11:37:00.296Z,505
2018-02-20T11:38:00.291Z,520
2018-02-20T11:39:00.278Z,580
2018-02-20T11:40:00.275Z,605
2018-02-20T11:41:00.264Z,540
2018-02-20T11:41:59.709Z,510
2018-02-20T11:42:59.700Z,580
2018-02-20T11:44:00.032Z,670
2018-02-20T11:45:00.488Z,725
2018-02-20T11:46:00.217Z,695
2018-02-20T11:46:59.676Z,660
2018-02-20T11:47:59.929Z,710
2018-02-20T11:49:00.223Z,675
2018-02-20T11:50:00.175Z,600
2018-02-20T11:51:00.419Z,620
2018-02-20T11:51:59.616Z,465
2018-02-20T11:52:59.891Z,510
2018-02-20T11:54:00.132Z,540
2018-02-20T11:55:00.125Z,525
2018-02-20T11:55:59.855Z,450
2018-02-20T11:56:59.576Z,450
2018-02-20T11:58:00.368Z,545
2018-02-20T11:59:00.103Z,575
2018-02-20T12:00:00.169Z,490
2018-02-20T12:01:00.105Z,670
2018-02-20T12:01:59.807Z,605
2018-02-20T12:03:00.328Z,680
2018-02-20T12:04:00.055Z,930
2018-02-20T12:04:59.516Z,1025
2018-02-20T12:06:00.039Z,1055
2018-02-20T12:06:59.757Z,1025
2018-02-20T12:07:59.483Z,995
2018-02-20T12:09:00.016Z,1005
2018-02-20T12:10:00.258Z,1015
2018-02-20T12:10:59.734Z,1105
2018-02-20T12:11:59.727Z,1105
2018-02-20T12:12:59.984Z,1115
2018-02-20T12:14:00.263Z,1045
2018-02-20T12:14:59.697Z,875
2018-02-20T12:15:59.968Z,895
2018-02-20T12:16:59.972Z,1035
2018-02-20T12:18:00.220Z,1070
2018-02-20T12:19:00.216Z,1065
2018-02-20T12:19:59.419Z,1090
2018-02-20T12:21:00.218Z,1095
2018-02-20T12:22:00.188Z,1120
2018-02-20T12:22:59.393Z,1105
2018-02-20T12:23:59.924Z,1070
2018-02-20T12:24:59.650Z,1080
2018-02-20T12:25:59.645Z,1080
2018-02-20T12:26:59.639Z,1085
2018-02-20T12:27:59.659Z,1070
2018-02-20T12:28:59.637Z,1035
2018-02-20T12:29:59.627Z,1010
2018-02-20T12:30:59.628Z,975
2018-02-20T12:32:00.148Z,985
2018-02-20T12:32:59.622Z,990
2018-02-20T12:33:59.878Z,1055
2018-02-20T12:34:59.639Z,1050
2018-02-20T12:36:00.207Z,1035
2018-02-20T12:36:59.895Z,1040
2018-02-20T12:37:59.330Z,1010
2018-02-20T12:38:59.858Z,995
2018-02-20T12:39:59.584Z,990
2018-02-20T12:40:59.592Z,915
2018-02-20T12:41:59.323Z,920
2018-02-20T12:42:59.851Z,1065
2018-02-20T12:43:59.313Z,1080
2018-02-20T12:44:59.502Z,1105
2018-02-20T12:45:59.578Z,1035
2018-02-20T12:46:59.832Z,1030
2018-02-20T12:47:59.583Z,1020
2018-02-20T12:49:00.081Z,995
2018-02-20T12:49:59.837Z,900
2018-02-20T12:50:59.288Z,895
2018-02-20T12:51:59.290Z,990
2018-02-20T12:52:59.820Z,1075
2018-02-20T12:53:59.280Z,1025
2018-02-20T12:54:59.543Z,1020
2018-02-20T12:55:59.539Z,1025
2018-02-20T12:57:00.061Z,1040
2018-02-20T12:57:59.266Z,1065
2018-02-20T12:58:59.520Z,1050
2018-02-20T12:59:59.791Z,1020
2018-02-20T13:00:59.517Z,985
2018-02-20T13:02:00.064Z,995
2018-02-20T13:02:59.501Z,960
2018-02-20T13:03:59.516Z,945
2018-02-20T13:04:59.780Z,935
2018-02-20T13:05:59.758Z,985
2018-02-20T13:06:59.233Z,1005
2018-02-20T13:07:58.954Z,945
2018-02-20T13:08:58.951Z,970
2018-02-20T13:09:58.943Z,975
2018-02-20T13:10:59.847Z,930
2018-02-20T13:11:59.735Z,985
2018-02-20T13:12:59.730Z,950
2018-02-20T13:13:59.194Z,950
2018-02-20T13:14:59.724Z,975
2018-02-20T13:15:59.730Z,985
2018-02-20T13:16:59.733Z,950
2018-02-20T13:17:59.995Z,935
2018-02-20T13:18:59.179Z,925
2018-02-20T13:19:59.455Z,880
2018-02-20T13:20:59.449Z,910
2018-02-20T13:21:59.702Z,935
2018-02-20T13:22:59.975Z,935
2018-02-20T13:23:59.157Z,930
2018-02-20T13:24:59.169Z,920
2018-02-20T13:25:59.421Z,965
2018-02-20T13:26:59.879Z,970
2018-02-20T13:27:59.410Z,995
2018-02-20T13:28:59.936Z,975
2018-02-20T13:29:59.675Z,930
2018-02-20T13:30:59.152Z,895
2018-02-20T13:31:59.660Z,905
2018-02-20T13:32:59.658Z,920
2018-02-20T13:34:00.139Z,915
2018-02-20T13:34:59.923Z,855
2018-02-20T13:35:59.124Z,855
2018-02-20T13:36:59.642Z,875
2018-02-20T13:37:59.671Z,860
2018-02-20T13:38:59.366Z,840
2018-02-20T13:39:59.103Z,795
2018-02-20T13:40:59.623Z,800
2018-02-20T13:41:59.910Z,825
2018-02-20T13:42:59.615Z,835
2018-02-20T13:43:59.665Z,820
2018-02-20T13:44:59.398Z,820
2018-02-20T13:45:59.609Z,835
2018-02-20T13:46:59.336Z,840
2018-02-20T13:47:59.606Z,810
2018-02-20T13:48:59.060Z,795
2018-02-20T13:49:59.595Z,780
2018-02-20T13:50:59.359Z,740
2018-02-20T13:51:59.312Z,755
2018-02-20T13:52:59.344Z,780
2018-02-20T13:53:59.351Z,790
2018-02-20T13:54:59.588Z,780
2018-02-20T13:55:59.891Z,765
2018-02-20T13:56:59.300Z,760
2018-02-20T13:57:59.059Z,750
2018-02-20T13:58:59.770Z,765
2018-02-20T13:59:59.269Z,760
2018-02-20T14:00:59.807Z,745
2018-02-20T14:01:59.794Z,740
2018-02-20T14:02:58.982Z,710
2018-02-20T14:03:58.999Z,670
2018-02-20T14:04:59.233Z,665
2018-02-20T14:05:59.227Z,730
2018-02-20T14:06:59.492Z,700
2018-02-20T14:07:59.505Z,670
2018-02-20T14:08:59.485Z,670
2018-02-20T14:09:59.789Z,645
2018-02-20T14:10:59.950Z,640
2018-02-20T14:11:59.469Z,625
2018-02-20T14:12:59.553Z,615
2018-02-20T14:13:59.734Z,610
2018-02-20T14:14:59.253Z,615